createdAt,value
2019-04-30T00:00:06.202Z,9.29
2019-04-30T00:05:10.086Z,9.3
2019-04-30T00:10:08.334Z,9.27
2019-04-30T00:15:06.205Z,9.25
2019-04-30T00:20:06.877Z,9.25
2019-04-30T00:25:09.443Z,9.22
2019-04-30T00:30:07.328Z,9.23
2019-04-30T00:35:11.564Z,9.2
2019-04-30T00:40:09.642Z,9.22
2019-04-30T00:45:09.624Z,9.27
2019-04-30T00:50:09.470Z,9.25
2019-04-30T00:55:09.481Z,9.24
2019-04-30T01:00:05.090Z,9.21
2019-04-30T01:05:09.001Z,9.22
2019-04-30T01:10:05.832Z,9.19
2019-04-30T01:15:10.467Z,9.18
2019-04-30T01:20:10.046Z,9.18
2019-04-30T01:25:20.744Z,9.16
2019-04-30T01:30:08.665Z,9.16
2019-04-30T01:35:06.421Z,9.12
2019-04-30T01:40:13.412Z,9.19
2019-04-30T01:45:05.431Z,9.38
2019-04-30T01:50:09.597Z,9.42
2019-04-30T01:55:08.523Z,9.22
2019-04-30T02:00:03.048Z,9.18
2019-04-30T02:05:08.911Z,9.15
2019-04-30T02:10:08.727Z,9.11
2019-04-30T02:15:03.728Z,9.24
2019-04-30T02:20:09.504Z,9.18
2019-04-30T02:25:12.274Z,9.08
2019-04-30T02:30:06.731Z,9.19
2019-04-30T02:35:09.746Z,9.07
2019-04-30T02:40:13.379Z,9.27
2019-04-30T02:45:06.534Z,9.11
2019-04-30T02:50:15.464Z,9.05
2019-04-30T02:55:13.172Z,9.07
2019-04-30T03:00:03.724Z,8.97
2019-04-30T03:05:14.048Z,9.07
2019-04-30T03:10:10.893Z,9.19
2019-04-30T03:15:09.732Z,9.05
2019-04-30T03:20:10.704Z,9.04
2019-04-30T03:25:09.881Z,9.2
2019-04-30T03:30:11.886Z,9.18
2019-04-30T03:35:12.209Z,9.17
2019-04-30T03:40:12.777Z,9.17
2019-04-30T03:45:02.596Z,9.14
2019-04-30T03:50:06.623Z,9.14
2019-04-30T03:55:09.322Z,9.16
2019-04-30T04:00:02.927Z,9.11
2019-04-30T04:05:07.045Z,9.09
2019-04-30T04:10:04.420Z,8.91
2019-04-30T04:15:10.174Z,8.95
2019-04-30T04:20:07.335Z,8.94
2019-04-30T04:25:12.756Z,8.95
2019-04-30T04:30:04.009Z,8.96
2019-04-30T04:35:12.743Z,9
2019-04-30T04:40:05.605Z,9
2019-04-30T04:45:03.027Z,9.03
2019-04-30T04:50:04.841Z,9.05
2019-04-30T04:55:04.153Z,9.07
2019-04-30T05:00:07.445Z,9.11
2019-04-30T05:05:04.694Z,9.14
2019-04-30T05:10:03.770Z,9.17
2019-04-30T05:15:04.462Z,9.21
2019-04-30T05:20:09.804Z,9.2
2019-04-30T05:25:09.770Z,9.3
2019-04-30T05:30:05.679Z,9.27
2019-04-30T05:35:10.225Z,9.42
2019-04-30T05:40:09.170Z,9.38
2019-04-30T05:45:04.082Z,9.46
2019-04-30T05:50:08.985Z,9.42
2019-04-30T05:55:08.533Z,9.65
2019-04-30T06:00:04.352Z,9.68
2019-04-30T06:05:08.616Z,9.78
2019-04-30T06:10:06.607Z,9.7
2019-04-30T06:15:04.253Z,9.75
2019-04-30T06:20:16.139Z,10.01
2019-04-30T06:25:10.547Z,9.82
2019-04-30T06:30:04.372Z,9.95
2019-04-30T06:35:09.091Z,9.92
2019-04-30T06:40:09.379Z,9.94
2019-04-30T06:45:04.453Z,10.14
2019-04-30T06:50:06.748Z,10.36
2019-04-30T06:55:09.966Z,10.81
2019-04-30T07:00:04.804Z,10.96
2019-04-30T07:05:10.313Z,11.71
2019-04-30T07:10:03.982Z,11.97
2019-04-30T07:15:04.532Z,11.33
2019-04-30T07:20:07.593Z,11.57
2019-04-30T07:25:09.508Z,11.34
2019-04-30T07:30:04.236Z,11.13
2019-04-30T07:35:09.391Z,10.66
2019-04-30T07:40:06.559Z,11
2019-04-30T07:45:04.406Z,11.44
2019-04-30T07:50:10.279Z,11.27
2019-04-30T07:55:09.725Z,10.92
2019-04-30T08:00:04.299Z,11.25
2019-04-30T08:05:10.329Z,11.48
2019-04-30T08:10:08.802Z,11.29
2019-04-30T08:15:04.426Z,11.34
2019-04-30T08:20:06.329Z,11.22
2019-04-30T08:25:09.621Z,11.77
2019-04-30T08:30:03.223Z,12.01
2019-04-30T08:35:06.437Z,11.7
2019-04-30T08:40:08.777Z,12.12
2019-04-30T08:45:03.290Z,11.86
2019-04-30T08:50:06.902Z,11.99
2019-04-30T08:55:15.603Z,12.88
2019-04-30T09:00:03.209Z,12.66
2019-04-30T09:05:06.880Z,13.21
2019-04-30T09:10:10.170Z,12.87
2019-04-30T09:15:02.791Z,13.23
2019-04-30T09:20:10.040Z,12.93
2019-04-30T09:25:09.279Z,12.37
2019-04-30T09:30:02.848Z,12.18
2019-04-30T09:35:09.993Z,12.99
2019-04-30T09:40:17.624Z,13.52
2019-04-30T09:45:02.994Z,14.14
2019-04-30T09:50:08.983Z,13.86
2019-04-30T09:55:09.432Z,12.95
2019-04-30T10:00:03.148Z,13.81
2019-04-30T10:05:08.002Z,14.68
2019-04-30T10:10:09.470Z,14.53
2019-04-30T10:15:02.829Z,15
2019-04-30T10:20:06.784Z,14.66
2019-04-30T10:25:09.262Z,14.67
2019-04-30T10:30:02.881Z,14.75
2019-04-30T10:35:06.709Z,14.51
2019-04-30T10:40:07.535Z,14.78
2019-04-30T10:45:02.977Z,14.23
2019-04-30T10:50:04.718Z,14.64
2019-04-30T10:55:06.032Z,15.07
2019-04-30T11:00:04.379Z,14.98
2019-04-30T11:05:06.856Z,15.11
2019-04-30T11:10:08.745Z,15.04
2019-04-30T11:15:04.331Z,14.89
2019-04-30T11:20:06.594Z,15.3
2019-04-30T11:25:09.699Z,15.51
2019-04-30T11:30:04.318Z,15.91
2019-04-30T11:35:06.981Z,15.92
2019-04-30T11:40:07.611Z,15.86
2019-04-30T11:45:04.317Z,15.32
2019-04-30T11:50:06.898Z,15.82
2019-04-30T11:55:09.505Z,15.9
2019-04-30T12:00:04.367Z,15.4
2019-04-30T12:05:07.117Z,15.72
2019-04-30T12:10:09.550Z,16.01
2019-04-30T12:15:04.231Z,16.04
2019-04-30T12:20:08.595Z,15.68
2019-04-30T12:25:10.097Z,15.42
2019-04-30T12:30:03.741Z,15.65
2019-04-30T12:35:07.200Z,15.95
2019-04-30T12:40:25.137Z,16.05
2019-04-30T12:45:04.212Z,15.98
2019-04-30T12:50:09.552Z,16.13
2019-04-30T12:55:15.575Z,16.29
2019-04-30T13:00:06.816Z,16.45
2019-04-30T13:05:10.479Z,16.39
2019-04-30T13:10:08.189Z,16.5
2019-04-30T13:15:03.981Z,16.73
2019-04-30T13:20:18.203Z,16.41
2019-04-30T13:25:09.309Z,16.5
2019-04-30T13:30:04.071Z,16.64
2019-04-30T13:35:09.253Z,16.8
2019-04-30T13:40:07.588Z,16.22
2019-04-30T13:45:04.178Z,16.5
2019-04-30T13:50:06.628Z,16.63
2019-04-30T13:55:10.542Z,16.66
2019-04-30T14:00:04.411Z,16.82
2019-04-30T14:05:06.605Z,16.93
2019-04-30T14:10:08.531Z,16.98
2019-04-30T14:15:03.848Z,17.05
2019-04-30T14:20:07.359Z,17.26
2019-04-30T14:25:09.667Z,17.22
2019-04-30T14:30:04.180Z,17.47
2019-04-30T14:35:09.117Z,17.61
2019-04-30T14:40:12.171Z,17.62
2019-04-30T14:45:06.283Z,17.78
2019-04-30T14:50:10.930Z,17.88
2019-04-30T14:55:09.904Z,17.37
2019-04-30T15:00:12.618Z,17.21
2019-04-30T15:05:15.413Z,17.11
2019-04-30T15:10:04.633Z,17.61
2019-04-30T15:15:09.151Z,17.69
2019-04-30T15:20:04.894Z,17.63
2019-04-30T15:25:08.107Z,17.62
2019-04-30T15:30:08.188Z,17.51
2019-04-30T15:35:09.739Z,17.69
2019-04-30T15:40:09.136Z,17.66
2019-04-30T15:45:07.065Z,17.64
2019-04-30T15:50:06.226Z,17.5
2019-04-30T15:55:06.902Z,17.37
2019-04-30T16:00:03.880Z,17.14
2019-04-30T16:05:09.004Z,17.16
2019-04-30T16:10:03.725Z,17.24
2019-04-30T16:15:09.917Z,17.64
2019-04-30T16:20:09.169Z,17.6
2019-04-30T16:25:08.626Z,17.25
2019-04-30T16:30:03.650Z,17.18
2019-04-30T16:35:08.947Z,17.17
2019-04-30T16:40:08.317Z,17.35
2019-04-30T16:45:03.412Z,17.19
2019-04-30T16:50:05.882Z,16.94
2019-04-30T16:55:05.419Z,16.73
2019-04-30T17:00:03.554Z,16.62
2019-04-30T17:05:05.457Z,16.6
2019-04-30T17:10:05.795Z,16.5
2019-04-30T17:15:04.427Z,16.33
2019-04-30T17:20:05.052Z,16.21
2019-04-30T17:25:07.070Z,16.18
2019-04-30T17:30:03.720Z,16.16
2019-04-30T17:35:09.047Z,16.1
2019-04-30T17:40:09.240Z,16.07
2019-04-30T17:45:04.080Z,15.98
2019-04-30T17:50:08.729Z,15.81
2019-04-30T17:55:09.670Z,15.68
2019-04-30T18:00:16.159Z,15.51
2019-04-30T18:05:07.053Z,15.39
2019-04-30T18:10:09.603Z,15.24
2019-04-30T18:15:04.868Z,15.13
2019-04-30T18:20:10.965Z,15
2019-04-30T18:25:09.383Z,14.81
2019-04-30T18:30:04.111Z,14.66
2019-04-30T18:35:09.255Z,14.47
2019-04-30T18:40:07.365Z,14.28
2019-04-30T18:45:03.993Z,14.13
2019-04-30T18:50:09.226Z,13.94
2019-04-30T18:55:09.316Z,13.77
2019-04-30T19:00:04.022Z,13.63
2019-04-30T19:05:09.478Z,13.47
2019-04-30T19:10:06.410Z,13.29
2019-04-30T19:15:03.959Z,13.03
2019-04-30T19:20:08.597Z,12.82
2019-04-30T19:25:08.961Z,12.62
2019-04-30T19:30:03.094Z,12.43
2019-04-30T19:35:06.034Z,12.37
2019-04-30T19:40:08.562Z,12.23
2019-04-30T19:45:09.549Z,12.16
2019-04-30T19:50:06.170Z,12.1
2019-04-30T19:55:06.984Z,11.93
2019-04-30T20:00:03.968Z,11.74
2019-04-30T20:05:09.011Z,11.54
2019-04-30T20:10:09.224Z,11.33
2019-04-30T20:15:16.273Z,11.09
2019-04-30T20:20:09.919Z,10.93
2019-04-30T20:25:09.179Z,10.8
2019-04-30T20:30:03.330Z,10.65
2019-04-30T20:35:09.795Z,10.5
2019-04-30T20:40:08.715Z,10.41
2019-04-30T20:45:04.035Z,10.27
2019-04-30T20:50:07.222Z,10.13
2019-04-30T20:55:07.321Z,10.04
2019-04-30T21:00:03.325Z,9.97
2019-04-30T21:05:07.150Z,9.86
2019-04-30T21:10:06.822Z,9.78
2019-04-30T21:15:03.241Z,9.66
2019-04-30T21:20:06.304Z,9.56
2019-04-30T21:25:09.314Z,9.49
2019-04-30T21:30:03.331Z,9.4
2019-04-30T21:35:06.382Z,9.33
2019-04-30T21:40:07.309Z,9.26
2019-04-30T21:45:02.783Z,9.15
2019-04-30T21:50:08.300Z,9.11
2019-04-30T21:55:05.965Z,9.01
2019-04-30T22:00:03.396Z,8.95
2019-04-30T22:05:06.385Z,8.89
2019-04-30T22:10:07.613Z,8.83
2019-04-30T22:15:03.297Z,8.75
2019-04-30T22:20:09.513Z,8.7
2019-04-30T22:25:06.795Z,8.7
2019-04-30T22:30:03.254Z,8.71
2019-04-30T22:35:07.076Z,8.62
2019-04-30T22:40:05.779Z,8.53
2019-04-30T22:45:03.172Z,8.46
2019-04-30T22:50:06.284Z,8.38
2019-04-30T22:55:07.316Z,8.32
2019-04-30T23:00:03.350Z,8.22
2019-04-30T23:05:08.439Z,8.14
2019-04-30T23:10:01.636Z,8.14
2019-04-30T23:15:05.442Z,7.99
2019-04-30T23:20:01.540Z,7.91
2019-04-30T23:25:01.640Z,7.83
2019-04-30T23:30:03.398Z,7.76
2019-04-30T23:35:02.077Z,7.7
2019-04-30T23:40:01.190Z,7.62
2019-04-30T23:45:01.318Z,7.69
2019-04-30T23:50:01.415Z,7.56
2019-04-30T23:55:01.537Z,7.54
